sensor_id;sensor_type;location;lat;lon;timestamp;P1;durP1;ratioP1;P2;durP2;ratioP2
67816;SDS011;54614;47.576;7.524;2024-02-28T00:02:10;2.50;;;2.30;;
67816;SDS011;54614;47.576;7.524;2024-02-28T00:04:36;2.30;;;2.20;;
67816;SDS011;54614;47.576;7.524;2024-02-28T00:07:05;2.37;;;2.17;;
67816;SDS011;54614;47.576;7.524;2024-02-28T00:09:31;2.10;;;2.00;;
67816;SDS011;54614;47.576;7.524;2024-02-28T00:11:57;2.43;;;2.23;;
67816;SDS011;54614;47.576;7.524;2024-02-28T00:14:23;2.10;;;2.00;;
67816;SDS011;54614;47.576;7.524;2024-02-28T00:16:49;2.37;;;2.17;;
67816;SDS011;54614;47.576;7.524;2024-02-28T00:19:15;2.07;;;1.97;;
67816;SDS011;54614;47.576;7.524;2024-02-28T00:21:43;2.20;;;2.10;;
67816;SDS011;54614;47.576;7.524;2024-02-28T00:24:09;2.23;;;2.10;;
67816;SDS011;54614;47.576;7.524;2024-02-28T00:26:35;2.20;;;2.10;;
67816;SDS011;54614;47.576;7.524;2024-02-28T00:29:01;2.30;;;2.10;;
67816;SDS011;54614;47.576;7.524;2024-02-28T00:31:27;2.50;;;2.30;;
67816;SDS011;54614;47.576;7.524;2024-02-28T00:33:53;2.20;;;2.10;;
67816;SDS011;54614;47.576;7.524;2024-02-28T00:36:19;2.50;;;2.30;;
67816;SDS011;54614;47.576;7.524;2024-02-28T00:38:45;2.40;;;2.20;;
67816;SDS011;54614;47.576;7.524;2024-02-28T00:41:11;2.20;;;2.10;;
67816;SDS011;54614;47.576;7.524;2024-02-28T00:43:36;2.30;;;2.10;;
67816;SDS011;54614;47.576;7.524;2024-02-28T00:46:02;2.40;;;2.20;;
67816;SDS011;54614;47.576;7.524;2024-02-28T00:48:28;2.30;;;2.10;;
67816;SDS011;54614;47.576;7.524;2024-02-28T00:50:54;2.40;;;2.20;;
67816;SDS011;54614;47.576;7.524;2024-02-28T00:53:20;2.60;;;2.40;;
67816;SDS011;54614;47.576;7.524;2024-02-28T00:55:46;2.40;;;2.20;;
67816;SDS011;54614;47.576;7.524;2024-02-28T00:58:11;2.00;;;1.90;;
67816;SDS011;54614;47.576;7.524;2024-02-28T01:00:37;2.10;;;1.90;;
67816;SDS011;54614;47.576;7.524;2024-02-28T01:03:03;2.37;;;2.17;;
67816;SDS011;54614;47.576;7.524;2024-02-28T01:05:30;2.40;;;2.20;;
67816;SDS011;54614;47.576;7.524;2024-02-28T01:07:56;2.33;;;2.13;;
67816;SDS011;54614;47.576;7.524;2024-02-28T01:10:22;2.20;;;2.10;;
67816;SDS011;54614;47.576;7.524;2024-02-28T01:12:48;2.13;;;2.03;;
67816;SDS011;54614;47.576;7.524;2024-02-28T01:15:14;2.60;;;2.40;;
67816;SDS011;54614;47.576;7.524;2024-02-28T01:17:40;2.90;;;2.70;;
67816;SDS011;54614;47.576;7.524;2024-02-28T01:20:06;3.00;;;2.80;;
67816;SDS011;54614;47.576;7.524;2024-02-28T01:22:33;2.93;;;2.73;;
67816;SDS011;54614;47.576;7.524;2024-02-28T01:25:00;3.17;;;2.87;;
67816;SDS011;54614;47.576;7.524;2024-02-28T01:27:30;3.03;;;2.73;;
67816;SDS011;54614;47.576;7.524;2024-02-28T01:29:56;3.50;;;3.20;;
67816;SDS011;54614;47.576;7.524;2024-02-28T01:32:21;3.20;;;2.90;;
67816;SDS011;54614;47.576;7.524;2024-02-28T01:34:47;3.43;;;3.13;;
67816;SDS011;54614;47.576;7.524;2024-02-28T01:37:13;2.90;;;2.67;;
67816;SDS011;54614;47.576;7.524;2024-02-28T01:39:39;3.30;;;3.00;;
67816;SDS011;54614;47.576;7.524;2024-02-28T01:42:05;3.30;;;3.00;;
67816;SDS011;54614;47.576;7.524;2024-02-28T01:44:31;3.40;;;3.10;;
67816;SDS011;54614;47.576;7.524;2024-02-28T01:47:13;3.37;;;3.00;;
67816;SDS011;54614;47.576;7.524;2024-02-28T01:49:40;3.03;;;2.80;;
67816;SDS011;54614;47.576;7.524;2024-02-28T01:52:08;3.23;;;2.93;;
67816;SDS011;54614;47.576;7.524;2024-02-28T01:54:35;3.60;;;3.30;;
67816;SDS011;54614;47.576;7.524;2024-02-28T01:57:01;3.60;;;3.30;;
67816;SDS011;54614;47.576;7.524;2024-02-28T01:59:28;3.63;;;3.10;;
67816;SDS011;54614;47.576;7.524;2024-02-28T02:01:57;2.90;;;2.70;;
67816;SDS011;54614;47.576;7.524;2024-02-28T02:04:22;2.60;;;2.40;;
67816;SDS011;54614;47.576;7.524;2024-02-28T02:06:48;2.80;;;2.60;;
67816;SDS011;54614;47.576;7.524;2024-02-28T02:09:14;2.77;;;2.57;;
67816;SDS011;54614;47.576;7.524;2024-02-28T02:11:42;3.10;;;2.80;;
67816;SDS011;54614;47.576;7.524;2024-02-28T02:14:07;2.80;;;2.60;;
67816;SDS011;54614;47.576;7.524;2024-02-28T02:16:33;2.70;;;2.50;;
67816;SDS011;54614;47.576;7.524;2024-02-28T02:18:59;2.73;;;2.53;;
67816;SDS011;54614;47.576;7.524;2024-02-28T02:21:26;2.43;;;2.23;;
67816;SDS011;54614;47.576;7.524;2024-02-28T02:23:58;2.37;;;2.17;;
67816;SDS011;54614;47.576;7.524;2024-02-28T02:26:23;2.83;;;2.63;;
67816;SDS011;54614;47.576;7.524;2024-02-28T02:28:49;2.53;;;2.33;;
67816;SDS011;54614;47.576;7.524;2024-02-28T02:31:15;2.60;;;2.40;;
67816;SDS011;54614;47.576;7.524;2024-02-28T02:33:41;2.60;;;2.40;;
67816;SDS011;54614;47.576;7.524;2024-02-28T02:36:06;2.70;;;2.50;;
67816;SDS011;54614;47.576;7.524;2024-02-28T02:38:32;2.43;;;2.30;;
67816;SDS011;54614;47.576;7.524;2024-02-28T02:40:58;2.60;;;2.40;;
67816;SDS011;54614;47.576;7.524;2024-02-28T02:43:24;2.60;;;2.40;;
67816;SDS011;54614;47.576;7.524;2024-02-28T02:45:49;2.50;;;2.30;;
67816;SDS011;54614;47.576;7.524;2024-02-28T02:48:15;2.50;;;2.30;;
67816;SDS011;54614;47.576;7.524;2024-02-28T02:50:41;2.63;;;2.43;;
67816;SDS011;54614;47.576;7.524;2024-02-28T02:53:08;2.77;;;2.57;;
67816;SDS011;54614;47.576;7.524;2024-02-28T02:55:36;2.47;;;2.27;;
67816;SDS011;54614;47.576;7.524;2024-02-28T02:58:02;2.57;;;2.37;;
67816;SDS011;54614;47.576;7.524;2024-02-28T03:00:28;2.80;;;2.60;;
67816;SDS011;54614;47.576;7.524;2024-02-28T03:02:54;2.50;;;2.30;;
67816;SDS011;54614;47.576;7.524;2024-02-28T03:05:20;2.90;;;2.70;;
67816;SDS011;54614;47.576;7.524;2024-02-28T03:07:46;2.80;;;2.60;;
67816;SDS011;54614;47.576;7.524;2024-02-28T03:10:11;2.50;;;2.30;;
67816;SDS011;54614;47.576;7.524;2024-02-28T03:12:37;2.60;;;2.40;;
67816;SDS011;54614;47.576;7.524;2024-02-28T03:15:03;2.20;;;2.10;;
67816;SDS011;54614;47.576;7.524;2024-02-28T03:17:30;2.60;;;2.40;;
67816;SDS011;54614;47.576;7.524;2024-02-28T03:19:56;2.60;;;2.40;;
67816;SDS011;54614;47.576;7.524;2024-02-28T03:22:22;2.27;;;2.13;;
67816;SDS011;54614;47.576;7.524;2024-02-28T03:24:47;2.53;;;2.33;;
67816;SDS011;54614;47.576;7.524;2024-02-28T03:27:13;2.50;;;2.30;;
67816;SDS011;54614;47.576;7.524;2024-02-28T03:29:40;2.60;;;2.40;;
67816;SDS011;54614;47.576;7.524;2024-02-28T03:32:05;2.80;;;2.60;;
67816;SDS011;54614;47.576;7.524;2024-02-28T03:34:31;2.67;;;2.47;;
67816;SDS011;54614;47.576;7.524;2024-02-28T03:36:57;2.83;;;2.40;;
67816;SDS011;54614;47.576;7.524;2024-02-28T03:39:23;2.60;;;2.40;;
67816;SDS011;54614;47.576;7.524;2024-02-28T03:41:49;2.33;;;2.13;;
67816;SDS011;54614;47.576;7.524;2024-02-28T03:44:15;2.30;;;2.20;;
67816;SDS011;54614;47.576;7.524;2024-02-28T03:46:40;2.70;;;2.50;;
67816;SDS011;54614;47.576;7.524;2024-02-28T03:49:06;2.43;;;2.23;;
67816;SDS011;54614;47.576;7.524;2024-02-28T03:51:32;2.40;;;2.20;;
67816;SDS011;54614;47.576;7.524;2024-02-28T03:54:04;2.50;;;2.30;;
67816;SDS011;54614;47.576;7.524;2024-02-28T03:56:30;2.70;;;2.40;;
67816;SDS011;54614;47.576;7.524;2024-02-28T03:58:56;2.40;;;2.20;;
67816;SDS011;54614;47.576;7.524;2024-02-28T04:01:21;2.50;;;2.30;;
67816;SDS011;54614;47.576;7.524;2024-02-28T04:03:47;2.60;;;2.40;;
67816;SDS011;54614;47.576;7.524;2024-02-28T04:06:13;2.40;;;2.20;;
67816;SDS011;54614;47.576;7.524;2024-02-28T04:08:40;2.60;;;2.40;;
67816;SDS011;54614;47.576;7.524;2024-02-28T04:11:06;2.40;;;2.20;;
67816;SDS011;54614;47.576;7.524;2024-02-28T04:13:32;2.33;;;2.20;;
67816;SDS011;54614;47.576;7.524;2024-02-28T04:15:58;2.20;;;2.10;;
67816;SDS011;54614;47.576;7.524;2024-02-28T04:18:24;2.40;;;2.20;;
67816;SDS011;54614;47.576;7.524;2024-02-28T04:20:50;2.50;;;2.30;;
67816;SDS011;54614;47.576;7.524;2024-02-28T04:23:16;2.40;;;2.20;;
67816;SDS011;54614;47.576;7.524;2024-02-28T04:25:42;2.47;;;2.27;;
67816;SDS011;54614;47.576;7.524;2024-02-28T04:28:08;2.60;;;2.40;;
67816;SDS011;54614;47.576;7.524;2024-02-28T04:30:34;2.50;;;2.30;;
67816;SDS011;54614;47.576;7.524;2024-02-28T04:33:00;2.43;;;2.23;;
67816;SDS011;54614;47.576;7.524;2024-02-28T04:35:25;2.40;;;2.20;;
67816;SDS011;54614;47.576;7.524;2024-02-28T04:37:51;2.50;;;2.30;;
67816;SDS011;54614;47.576;7.524;2024-02-28T04:40:17;2.20;;;2.10;;
67816;SDS011;54614;47.576;7.524;2024-02-28T04:42:43;2.50;;;2.30;;
67816;SDS011;54614;47.576;7.524;2024-02-28T04:45:08;2.20;;;2.10;;
67816;SDS011;54614;47.576;7.524;2024-02-28T04:47:36;2.40;;;2.20;;
67816;SDS011;54614;47.576;7.524;2024-02-28T04:50:03;2.20;;;2.10;;
67816;SDS011;54614;47.576;7.524;2024-02-28T04:52:31;2.60;;;2.40;;
67816;SDS011;54614;47.576;7.524;2024-02-28T04:55:00;2.13;;;2.03;;
67816;SDS011;54614;47.576;7.524;2024-02-28T04:57:26;2.40;;;2.20;;
67816;SDS011;54614;47.576;7.524;2024-02-28T04:59:52;2.50;;;2.30;;
67816;SDS011;54614;47.576;7.524;2024-02-28T05:02:18;2.50;;;2.30;;
67816;SDS011;54614;47.576;7.524;2024-02-28T05:04:47;2.23;;;2.03;;
67816;SDS011;54614;47.576;7.524;2024-02-28T05:07:12;2.10;;;2.00;;
67816;SDS011;54614;47.576;7.524;2024-02-28T05:09:38;2.33;;;2.13;;
67816;SDS011;54614;47.576;7.524;2024-02-28T05:12:04;2.30;;;2.10;;
67816;SDS011;54614;47.576;7.524;2024-02-28T05:14:30;2.50;;;2.30;;
67816;SDS011;54614;47.576;7.524;2024-02-28T05:16:56;2.30;;;2.10;;
67816;SDS011;54614;47.576;7.524;2024-02-28T05:19:22;2.33;;;2.17;;
67816;SDS011;54614;47.576;7.524;2024-02-28T05:21:48;2.40;;;2.20;;
67816;SDS011;54614;47.576;7.524;2024-02-28T05:24:14;2.60;;;2.40;;
67816;SDS011;54614;47.576;7.524;2024-02-28T05:26:40;2.50;;;2.30;;
67816;SDS011;54614;47.576;7.524;2024-02-28T05:29:06;2.40;;;2.20;;
67816;SDS011;54614;47.576;7.524;2024-02-28T05:31:32;2.33;;;2.23;;
67816;SDS011;54614;47.576;7.524;2024-02-28T05:33:58;2.50;;;2.30;;
67816;SDS011;54614;47.576;7.524;2024-02-28T05:36:26;2.20;;;2.10;;
67816;SDS011;54614;47.576;7.524;2024-02-28T05:38:55;2.20;;;2.10;;
67816;SDS011;54614;47.576;7.524;2024-02-28T05:41:25;2.30;;;2.10;;
67816;SDS011;54614;47.576;7.524;2024-02-28T05:43:51;2.33;;;2.13;;
67816;SDS011;54614;47.576;7.524;2024-02-28T05:46:18;2.10;;;2.00;;
67816;SDS011;54614;47.576;7.524;2024-02-28T05:48:44;2.63;;;2.43;;
67816;SDS011;54614;47.576;7.524;2024-02-28T05:51:11;2.67;;;2.47;;
67816;SDS011;54614;47.576;7.524;2024-02-28T05:53:41;2.37;;;2.17;;
67816;SDS011;54614;47.576;7.524;2024-02-28T05:56:08;2.63;;;2.43;;
67816;SDS011;54614;47.576;7.524;2024-02-28T05:58:45;2.40;;;2.20;;
67816;SDS011;54614;47.576;7.524;2024-02-28T06:01:14;2.33;;;2.13;;
67816;SDS011;54614;47.576;7.524;2024-02-28T06:03:48;2.30;;;2.10;;
67816;SDS011;54614;47.576;7.524;2024-02-28T06:06:14;2.60;;;2.40;;
67816;SDS011;54614;47.576;7.524;2024-02-28T06:08:39;2.00;;;1.90;;
67816;SDS011;54614;47.576;7.524;2024-02-28T06:11:06;2.27;;;2.17;;
67816;SDS011;54614;47.576;7.524;2024-02-28T06:13:32;2.03;;;1.93;;
67816;SDS011;54614;47.576;7.524;2024-02-28T06:15:59;2.50;;;2.30;;
67816;SDS011;54614;47.576;7.524;2024-02-28T06:18:25;2.33;;;2.13;;
67816;SDS011;54614;47.576;7.524;2024-02-28T06:20:55;2.07;;;1.97;;
67816;SDS011;54614;47.576;7.524;2024-02-28T06:23:21;2.20;;;2.00;;
67816;SDS011;54614;47.576;7.524;2024-02-28T06:25:48;2.50;;;2.30;;
67816;SDS011;54614;47.576;7.524;2024-02-28T06:28:14;2.20;;;2.00;;
67816;SDS011;54614;47.576;7.524;2024-02-28T06:30:40;2.27;;;2.07;;
67816;SDS011;54614;47.576;7.524;2024-02-28T06:33:08;2.30;;;2.10;;
67816;SDS011;54614;47.576;7.524;2024-02-28T06:35:34;2.23;;;2.13;;
67816;SDS011;54614;47.576;7.524;2024-02-28T06:38:00;2.20;;;2.10;;
67816;SDS011;54614;47.576;7.524;2024-02-28T06:40:26;2.50;;;2.30;;
67816;SDS011;54614;47.576;7.524;2024-02-28T06:42:53;2.30;;;2.10;;
67816;SDS011;54614;47.576;7.524;2024-02-28T06:45:19;2.30;;;2.00;;
67816;SDS011;54614;47.576;7.524;2024-02-28T06:47:46;2.10;;;2.00;;
67816;SDS011;54614;47.576;7.524;2024-02-28T06:50:12;2.10;;;2.00;;
67816;SDS011;54614;47.576;7.524;2024-02-28T06:52:38;1.97;;;1.87;;
67816;SDS011;54614;47.576;7.524;2024-02-28T06:55:03;2.20;;;2.10;;
67816;SDS011;54614;47.576;7.524;2024-02-28T06:57:35;2.27;;;2.13;;
67816;SDS011;54614;47.576;7.524;2024-02-28T07:00:04;2.23;;;2.10;;
67816;SDS011;54614;47.576;7.524;2024-02-28T07:02:35;2.30;;;2.10;;
67816;SDS011;54614;47.576;7.524;2024-02-28T07:05:01;2.27;;;2.07;;
67816;SDS011;54614;47.576;7.524;2024-02-28T07:07:29;1.97;;;1.87;;
67816;SDS011;54614;47.576;7.524;2024-02-28T07:09:58;2.07;;;1.97;;
67816;SDS011;54614;47.576;7.524;2024-02-28T07:12:24;2.60;;;2.40;;
67816;SDS011;54614;47.576;7.524;2024-02-28T07:14:50;2.30;;;2.10;;
67816;SDS011;54614;47.576;7.524;2024-02-28T07:17:17;2.10;;;1.97;;
67816;SDS011;54614;47.576;7.524;2024-02-28T07:19:43;2.17;;;2.00;;
67816;SDS011;54614;47.576;7.524;2024-02-28T07:22:08;2.23;;;2.03;;
67816;SDS011;54614;47.576;7.524;2024-02-28T07:24:34;2.33;;;2.13;;
67816;SDS011;54614;47.576;7.524;2024-02-28T07:27:01;2.10;;;2.00;;
67816;SDS011;54614;47.576;7.524;2024-02-28T07:29:28;2.17;;;2.07;;
67816;SDS011;54614;47.576;7.524;2024-02-28T07:31:53;2.00;;;1.90;;
67816;SDS011;54614;47.576;7.524;2024-02-28T07:34:19;1.83;;;1.73;;
67816;SDS011;54614;47.576;7.524;2024-02-28T07:36:45;2.40;;;2.20;;
67816;SDS011;54614;47.576;7.524;2024-02-28T07:39:11;2.33;;;2.23;;
67816;SDS011;54614;47.576;7.524;2024-02-28T07:41:38;2.20;;;2.10;;
67816;SDS011;54614;47.576;7.524;2024-02-28T07:44:04;2.03;;;1.93;;
67816;SDS011;54614;47.576;7.524;2024-02-28T07:46:32;2.40;;;2.20;;
67816;SDS011;54614;47.576;7.524;2024-02-28T07:48:58;2.07;;;1.90;;
67816;SDS011;54614;47.576;7.524;2024-02-28T07:51:23;2.27;;;2.07;;
67816;SDS011;54614;47.576;7.524;2024-02-28T07:53:49;2.07;;;1.97;;
67816;SDS011;54614;47.576;7.524;2024-02-28T07:56:16;2.10;;;2.00;;
67816;SDS011;54614;47.576;7.524;2024-02-28T07:58:43;2.10;;;1.93;;
67816;SDS011;54614;47.576;7.524;2024-02-28T08:01:10;1.83;;;1.73;;
67816;SDS011;54614;47.576;7.524;2024-02-28T08:03:36;2.03;;;1.93;;
67816;SDS011;54614;47.576;7.524;2024-02-28T08:06:02;2.30;;;2.00;;
67816;SDS011;54614;47.576;7.524;2024-02-28T08:08:29;1.93;;;1.83;;
67816;SDS011;54614;47.576;7.524;2024-02-28T08:10:54;2.17;;;2.07;;
67816;SDS011;54614;47.576;7.524;2024-02-28T08:13:20;2.23;;;2.03;;
67816;SDS011;54614;47.576;7.524;2024-02-28T08:15:46;2.40;;;2.20;;
67816;SDS011;54614;47.576;7.524;2024-02-28T08:18:12;1.90;;;1.80;;
67816;SDS011;54614;47.576;7.524;2024-02-28T08:20:38;1.90;;;1.80;;
67816;SDS011;54614;47.576;7.524;2024-02-28T08:23:04;2.17;;;2.00;;
67816;SDS011;54614;47.576;7.524;2024-02-28T08:25:31;2.10;;;2.00;;
67816;SDS011;54614;47.576;7.524;2024-02-28T08:27:57;1.80;;;1.70;;
67816;SDS011;54614;47.576;7.524;2024-02-28T08:30:23;2.27;;;2.07;;
67816;SDS011;54614;47.576;7.524;2024-02-28T08:32:49;2.40;;;2.20;;
67816;SDS011;54614;47.576;7.524;2024-02-28T08:35:14;2.20;;;2.00;;
67816;SDS011;54614;47.576;7.524;2024-02-28T08:37:43;2.10;;;2.00;;
67816;SDS011;54614;47.576;7.524;2024-02-28T08:40:09;2.17;;;2.07;;
67816;SDS011;54614;47.576;7.524;2024-02-28T08:42:36;2.17;;;2.00;;
67816;SDS011;54614;47.576;7.524;2024-02-28T08:45:02;2.20;;;2.00;;
67816;SDS011;54614;47.576;7.524;2024-02-28T08:47:28;1.77;;;1.67;;
67816;SDS011;54614;47.576;7.524;2024-02-28T08:49:54;1.93;;;1.83;;
67816;SDS011;54614;47.576;7.524;2024-02-28T08:52:20;2.07;;;1.97;;
67816;SDS011;54614;47.576;7.524;2024-02-28T08:54:47;2.03;;;1.93;;
67816;SDS011;54614;47.576;7.524;2024-02-28T08:57:14;2.10;;;2.00;;
67816;SDS011;54614;47.576;7.524;2024-02-28T08:59:40;2.30;;;2.10;;
67816;SDS011;54614;47.576;7.524;2024-02-28T09:02:06;2.20;;;2.10;;
67816;SDS011;54614;47.576;7.524;2024-02-28T09:04:33;2.10;;;2.00;;
67816;SDS011;54614;47.576;7.524;2024-02-28T09:06:59;2.37;;;2.17;;
67816;SDS011;54614;47.576;7.524;2024-02-28T09:09:25;2.33;;;2.13;;
67816;SDS011;54614;47.576;7.524;2024-02-28T09:11:51;2.17;;;2.07;;
67816;SDS011;54614;47.576;7.524;2024-02-28T09:14:17;2.00;;;1.90;;
67816;SDS011;54614;47.576;7.524;2024-02-28T09:16:42;2.17;;;2.07;;
67816;SDS011;54614;47.576;7.524;2024-02-28T09:19:08;2.10;;;1.90;;
67816;SDS011;54614;47.576;7.524;2024-02-28T09:21:34;1.93;;;1.83;;
67816;SDS011;54614;47.576;7.524;2024-02-28T09:24:00;2.20;;;2.10;;
67816;SDS011;54614;47.576;7.524;2024-02-28T09:26:26;2.33;;;2.13;;
67816;SDS011;54614;47.576;7.524;2024-02-28T09:28:52;2.40;;;2.20;;
67816;SDS011;54614;47.576;7.524;2024-02-28T09:31:18;2.00;;;1.90;;
67816;SDS011;54614;47.576;7.524;2024-02-28T09:33:44;2.03;;;1.93;;
67816;SDS011;54614;47.576;7.524;2024-02-28T09:36:11;2.40;;;2.20;;
67816;SDS011;54614;47.576;7.524;2024-02-28T09:38:38;2.20;;;2.10;;
67816;SDS011;54614;47.576;7.524;2024-02-28T09:41:04;2.10;;;2.00;;
67816;SDS011;54614;47.576;7.524;2024-02-28T09:43:30;2.07;;;1.97;;
67816;SDS011;54614;47.576;7.524;2024-02-28T09:46:03;2.17;;;2.00;;
67816;SDS011;54614;47.576;7.524;2024-02-28T09:48:30;2.10;;;2.00;;
67816;SDS011;54614;47.576;7.524;2024-02-28T09:50:57;2.23;;;2.03;;
67816;SDS011;54614;47.576;7.524;2024-02-28T09:53:23;2.13;;;2.03;;
67816;SDS011;54614;47.576;7.524;2024-02-28T09:55:49;2.43;;;2.23;;
67816;SDS011;54614;47.576;7.524;2024-02-28T09:58:17;2.23;;;2.13;;
67816;SDS011;54614;47.576;7.524;2024-02-28T10:00:46;1.90;;;1.80;;
67816;SDS011;54614;47.576;7.524;2024-02-28T10:03:18;1.97;;;1.87;;
67816;SDS011;54614;47.576;7.524;2024-02-28T10:05:46;2.00;;;1.90;;
67816;SDS011;54614;47.576;7.524;2024-02-28T10:08:12;2.00;;;1.90;;
67816;SDS011;54614;47.576;7.524;2024-02-28T10:10:44;2.00;;;1.90;;
67816;SDS011;54614;47.576;7.524;2024-02-28T10:13:12;2.03;;;1.93;;
67816;SDS011;54614;47.576;7.524;2024-02-28T10:15:38;2.47;;;2.27;;
67816;SDS011;54614;47.576;7.524;2024-02-28T10:18:04;2.40;;;2.20;;
67816;SDS011;54614;47.576;7.524;2024-02-28T10:20:31;2.40;;;2.20;;
67816;SDS011;54614;47.576;7.524;2024-02-28T10:22:57;2.30;;;2.10;;
67816;SDS011;54614;47.576;7.524;2024-02-28T10:25:22;2.30;;;2.13;;
67816;SDS011;54614;47.576;7.524;2024-02-28T10:27:49;2.10;;;2.00;;
67816;SDS011;54614;47.576;7.524;2024-02-28T10:30:14;2.20;;;2.10;;
67816;SDS011;54614;47.576;7.524;2024-02-28T10:32:51;2.10;;;2.00;;
67816;SDS011;54614;47.576;7.524;2024-02-28T10:35:17;2.17;;;1.97;;
67816;SDS011;54614;47.576;7.524;2024-02-28T10:37:51;2.27;;;2.17;;
67816;SDS011;54614;47.576;7.524;2024-02-28T10:40:19;2.10;;;2.00;;
67816;SDS011;54614;47.576;7.524;2024-02-28T10:42:46;2.13;;;2.03;;
67816;SDS011;54614;47.576;7.524;2024-02-28T10:45:13;2.60;;;2.40;;
67816;SDS011;54614;47.576;7.524;2024-02-28T10:47:42;2.60;;;2.40;;
67816;SDS011;54614;47.576;7.524;2024-02-28T10:50:09;2.50;;;2.30;;
67816;SDS011;54614;47.576;7.524;2024-02-28T10:52:34;2.33;;;2.17;;
67816;SDS011;54614;47.576;7.524;2024-02-28T10:55:08;2.30;;;2.20;;
67816;SDS011;54614;47.576;7.524;2024-02-28T10:57:36;2.40;;;2.20;;
67816;SDS011;54614;47.576;7.524;2024-02-28T11:00:04;2.20;;;2.10;;
67816;SDS011;54614;47.576;7.524;2024-02-28T11:02:31;2.20;;;2.00;;
67816;SDS011;54614;47.576;7.524;2024-02-28T11:04:58;2.10;;;2.00;;
67816;SDS011;54614;47.576;7.524;2024-02-28T11:07:26;2.10;;;2.00;;
67816;SDS011;54614;47.576;7.524;2024-02-28T11:09:55;2.20;;;2.00;;
67816;SDS011;54614;47.576;7.524;2024-02-28T11:12:25;2.40;;;2.20;;
67816;SDS011;54614;47.576;7.524;2024-02-28T11:15:01;2.30;;;2.10;;
67816;SDS011;54614;47.576;7.524;2024-02-28T11:17:34;2.40;;;2.20;;
67816;SDS011;54614;47.576;7.524;2024-02-28T11:20:02;2.30;;;2.10;;
67816;SDS011;54614;47.576;7.524;2024-02-28T11:22:38;2.20;;;2.00;;
67816;SDS011;54614;47.576;7.524;2024-02-28T11:25:05;2.13;;;2.03;;
67816;SDS011;54614;47.576;7.524;2024-02-28T11:27:31;2.07;;;1.97;;
67816;SDS011;54614;47.576;7.524;2024-02-28T11:29:57;2.10;;;2.00;;
67816;SDS011;54614;47.576;7.524;2024-02-28T11:32:26;2.13;;;2.03;;
67816;SDS011;54614;47.576;7.524;2024-02-28T11:34:51;2.07;;;1.90;;
67816;SDS011;54614;47.576;7.524;2024-02-28T11:37:17;2.20;;;2.10;;
67816;SDS011;54614;47.576;7.524;2024-02-28T11:39:47;2.27;;;2.10;;
67816;SDS011;54614;47.576;7.524;2024-02-28T11:42:14;2.47;;;2.27;;
67816;SDS011;54614;47.576;7.524;2024-02-28T11:44:41;2.27;;;2.10;;
67816;SDS011;54614;47.576;7.524;2024-02-28T11:47:10;2.27;;;2.10;;
67816;SDS011;54614;47.576;7.524;2024-02-28T11:49:37;2.17;;;2.00;;
67816;SDS011;54614;47.576;7.524;2024-02-28T11:52:06;1.90;;;1.80;;
67816;SDS011;54614;47.576;7.524;2024-02-28T11:54:32;2.20;;;2.10;;
67816;SDS011;54614;47.576;7.524;2024-02-28T11:56:58;1.80;;;1.70;;
67816;SDS011;54614;47.576;7.524;2024-02-28T11:59:24;2.00;;;1.90;;
67816;SDS011;54614;47.576;7.524;2024-02-28T12:01:49;2.20;;;2.00;;
67816;SDS011;54614;47.576;7.524;2024-02-28T12:04:17;2.07;;;1.97;;
67816;SDS011;54614;47.576;7.524;2024-02-28T12:06:43;2.30;;;2.10;;
67816;SDS011;54614;47.576;7.524;2024-02-28T12:09:09;1.90;;;1.80;;
67816;SDS011;54614;47.576;7.524;2024-02-28T12:11:40;2.60;;;2.40;;
67816;SDS011;54614;47.576;7.524;2024-02-28T12:14:07;2.30;;;2.10;;
67816;SDS011;54614;47.576;7.524;2024-02-28T12:16:36;2.00;;;1.90;;
67816;SDS011;54614;47.576;7.524;2024-02-28T12:19:04;2.07;;;1.97;;
67816;SDS011;54614;47.576;7.524;2024-02-28T12:21:37;2.40;;;2.20;;
67816;SDS011;54614;47.576;7.524;2024-02-28T12:24:04;2.10;;;2.00;;
67816;SDS011;54614;47.576;7.524;2024-02-28T12:26:37;2.10;;;2.00;;
67816;SDS011;54614;47.576;7.524;2024-02-28T12:29:04;2.23;;;2.13;;
67816;SDS011;54614;47.576;7.524;2024-02-28T12:31:30;2.10;;;2.00;;
67816;SDS011;54614;47.576;7.524;2024-02-28T12:33:56;2.10;;;2.00;;
67816;SDS011;54614;47.576;7.524;2024-02-28T12:36:21;1.90;;;1.80;;
67816;SDS011;54614;47.576;7.524;2024-02-28T12:38:47;2.43;;;2.23;;
67816;SDS011;54614;47.576;7.524;2024-02-28T12:41:13;2.00;;;1.90;;
67816;SDS011;54614;47.576;7.524;2024-02-28T12:43:40;2.10;;;2.00;;
67816;SDS011;54614;47.576;7.524;2024-02-28T12:46:06;2.13;;;1.93;;
67816;SDS011;54614;47.576;7.524;2024-02-28T12:48:39;1.80;;;1.70;;
67816;SDS011;54614;47.576;7.524;2024-02-28T12:51:11;2.00;;;1.90;;
67816;SDS011;54614;47.576;7.524;2024-02-28T12:54:00;2.03;;;1.93;;
67816;SDS011;54614;47.576;7.524;2024-02-28T12:56:26;2.13;;;2.00;;
67816;SDS011;54614;47.576;7.524;2024-02-28T12:58:52;2.47;;;2.27;;
67816;SDS011;54614;47.576;7.524;2024-02-28T13:01:18;2.30;;;2.10;;
67816;SDS011;54614;47.576;7.524;2024-02-28T13:03:44;2.20;;;2.10;;
67816;SDS011;54614;47.576;7.524;2024-02-28T13:06:10;2.47;;;2.30;;
67816;SDS011;54614;47.576;7.524;2024-02-28T13:08:36;2.33;;;2.13;;
67816;SDS011;54614;47.576;7.524;2024-02-28T13:11:01;2.20;;;2.10;;
67816;SDS011;54614;47.576;7.524;2024-02-28T13:13:28;2.03;;;1.93;;
67816;SDS011;54614;47.576;7.524;2024-02-28T13:15:54;2.00;;;1.90;;
67816;SDS011;54614;47.576;7.524;2024-02-28T13:18:20;2.33;;;2.13;;
67816;SDS011;54614;47.576;7.524;2024-02-28T13:20:45;1.93;;;1.83;;
67816;SDS011;54614;47.576;7.524;2024-02-28T13:23:11;2.00;;;1.90;;
67816;SDS011;54614;47.576;7.524;2024-02-28T13:25:37;2.00;;;1.90;;
67816;SDS011;54614;47.576;7.524;2024-02-28T13:28:03;2.43;;;2.23;;
67816;SDS011;54614;47.576;7.524;2024-02-28T13:30:29;2.37;;;2.20;;
67816;SDS011;54614;47.576;7.524;2024-02-28T13:32:55;2.40;;;2.20;;
67816;SDS011;54614;47.576;7.524;2024-02-28T13:35:20;2.10;;;2.00;;
67816;SDS011;54614;47.576;7.524;2024-02-28T13:37:46;2.30;;;2.10;;
67816;SDS011;54614;47.576;7.524;2024-02-28T13:40:12;2.00;;;1.90;;
67816;SDS011;54614;47.576;7.524;2024-02-28T13:42:38;1.90;;;1.80;;
67816;SDS011;54614;47.576;7.524;2024-02-28T13:45:04;2.03;;;1.93;;
67816;SDS011;54614;47.576;7.524;2024-02-28T13:47:32;1.93;;;1.83;;
67816;SDS011;54614;47.576;7.524;2024-02-28T13:49:59;1.97;;;1.87;;
67816;SDS011;54614;47.576;7.524;2024-02-28T13:52:26;1.90;;;1.80;;
67816;SDS011;54614;47.576;7.524;2024-02-28T13:54:52;2.10;;;2.00;;
67816;SDS011;54614;47.576;7.524;2024-02-28T13:57:18;2.23;;;2.10;;
67816;SDS011;54614;47.576;7.524;2024-02-28T13:59:43;2.30;;;2.10;;
67816;SDS011;54614;47.576;7.524;2024-02-28T14:02:13;2.10;;;2.00;;
67816;SDS011;54614;47.576;7.524;2024-02-28T14:04:40;2.13;;;2.00;;
67816;SDS011;54614;47.576;7.524;2024-02-28T14:07:08;2.17;;;2.07;;
67816;SDS011;54614;47.576;7.524;2024-02-28T14:09:34;2.00;;;1.90;;
67816;SDS011;54614;47.576;7.524;2024-02-28T14:12:00;2.10;;;2.00;;
67816;SDS011;54614;47.576;7.524;2024-02-28T14:14:25;1.90;;;1.80;;
67816;SDS011;54614;47.576;7.524;2024-02-28T14:16:52;1.90;;;1.80;;
67816;SDS011;54614;47.576;7.524;2024-02-28T14:19:18;2.00;;;1.90;;
67816;SDS011;54614;47.576;7.524;2024-02-28T14:21:43;2.30;;;2.10;;
67816;SDS011;54614;47.576;7.524;2024-02-28T14:24:09;1.90;;;1.80;;
67816;SDS011;54614;47.576;7.524;2024-02-28T14:26:36;2.37;;;2.17;;
67816;SDS011;54614;47.576;7.524;2024-02-28T14:29:02;2.10;;;2.00;;
67816;SDS011;54614;47.576;7.524;2024-02-28T14:31:30;1.97;;;1.87;;
67816;SDS011;54614;47.576;7.524;2024-02-28T14:33:56;2.07;;;1.90;;
67816;SDS011;54614;47.576;7.524;2024-02-28T14:36:22;2.10;;;2.00;;
67816;SDS011;54614;47.576;7.524;2024-02-28T14:38:50;2.50;;;2.30;;
67816;SDS011;54614;47.576;7.524;2024-02-28T14:41:15;2.30;;;2.10;;
67816;SDS011;54614;47.576;7.524;2024-02-28T14:43:41;2.17;;;2.07;;
67816;SDS011;54614;47.576;7.524;2024-02-28T14:46:07;2.20;;;2.00;;